Time;durP1;ratioP1;P1;durP2;ratioP2;P2;SDS_P1;SDS_P2;PMS_P1;PMS_P2;Temp;Humidity;BMP_temperature;BMP_pressure;BME280_temperature;BME280_humidity;BME280_pressure;Samples;Min_cycle;Max_cycle;Signal;HPM_P1;HPM_P2
2021/10/07 00:02:02;;;;;;;7.45;2.47;;;11.40;99.90;;;;;;5066220;28;20029;-74
2021/10/07 00:04:29;;;;;;;6.70;2.72;;;11.30;99.90;;;;;;5065892;28;20074;-73
2021/10/07 00:06:55;;;;;;;4.85;2.47;;;11.30;99.90;;;;;;5048532;28;20033;-74
2021/10/07 00:09:21;;;;;;;4.13;1.98;;;11.30;99.90;;;;;;5066116;28;20029;-73
2021/10/07 00:11:47;;;;;;;3.88;2.08;;;11.20;99.90;;;;;;5065949;28;20029;-74
2021/10/07 00:14:12;;;;;;;4.85;2.15;;;11.30;99.90;;;;;;5066120;28;20041;-75
2021/10/07 00:16:38;;;;;;;4.43;2.25;;;11.30;99.90;;;;;;5065860;28;20088;-73
2021/10/07 00:19:04;;;;;;;5.35;2.80;;;11.20;99.90;;;;;;5065828;28;20032;-73
2021/10/07 00:21:30;;;;;;;4.65;2.42;;;11.20;99.90;;;;;;5064463;28;20063;-73
2021/10/07 00:24:08;;;;;;;5.82;1.80;;;11.20;99.90;;;;;;5063948;28;20029;-73
2021/10/07 00:26:36;;;;;;;4.32;2.55;;;11.10;99.90;;;;;;5047670;28;20033;-72
2021/10/07 00:29:19;;;;;;;15.57;3.03;;;11.10;99.90;;;;;;5065262;28;20040;-73
2021/10/07 00:31:48;;;;;;;9.55;2.92;;;11.10;99.90;;;;;;5064993;28;20029;-75
2021/10/07 00:37:05;;;;;;;4.88;2.83;;;11.00;99.90;;;;;;5065639;28;20083;-74
2021/10/07 00:39:31;;;;;;;4.88;2.33;;;11.00;99.90;;;;;;5047394;28;20129;-74
2021/10/07 00:41:57;;;;;;;5.45;2.85;;;10.90;99.90;;;;;;5065610;28;20058;-74
2021/10/07 00:44:23;;;;;;;8.02;2.70;;;10.90;99.90;;;;;;5064039;28;20078;-74
2021/10/07 00:46:58;;;;;;;5.55;2.42;;;10.80;99.90;;;;;;5065116;28;20037;-74
2021/10/07 00:49:25;;;;;;;5.28;2.47;;;10.70;99.90;;;;;;5065052;28;20065;-75
2021/10/07 00:51:51;;;;;;;7.18;2.63;;;10.80;99.90;;;;;;5046699;28;20029;-75
2021/10/07 00:54:25;;;;;;;5.15;2.03;;;10.70;99.90;;;;;;5047121;28;20041;-73
2021/10/07 00:56:52;;;;;;;4.75;2.55;;;10.70;99.90;;;;;;5047428;28;20029;-73
2021/10/07 00:59:18;;;;;;;4.45;2.38;;;10.60;99.90;;;;;;5064882;28;20035;-74
2021/10/07 01:01:44;;;;;;;3.38;1.95;;;10.50;99.90;;;;;;5065020;28;20029;-74
2021/10/07 01:04:10;;;;;;;5.95;2.40;;;10.50;99.90;;;;;;5065221;28;20037;-73
2021/10/07 01:06:38;;;;;;;5.10;2.10;;;10.50;99.90;;;;;;5063198;28;20031;-73
2021/10/07 01:09:05;;;;;;;3.92;2.42;;;10.40;99.90;;;;;;5064982;28;20112;-73
2021/10/07 01:11:30;;;;;;;7.47;2.78;;;10.40;99.90;;;;;;5064921;28;20027;-73
2021/10/07 01:13:56;;;;;;;5.30;2.33;;;10.30;99.90;;;;;;5064289;28;20064;-73
2021/10/07 01:16:22;;;;;;;4.72;2.53;;;10.30;99.90;;;;;;5064647;28;20040;-74
2021/10/07 01:18:48;;;;;;;5.47;2.45;;;10.20;99.90;;;;;;5065042;28;20032;-76
2021/10/07 01:21:17;;;;;;;3.83;2.00;;;10.20;99.90;;;;;;5064578;28;20024;-77
2021/10/07 01:23:45;;;;;;;2.72;1.40;;;10.20;99.90;;;;;;5047028;28;20041;-76
2021/10/07 01:26:12;;;;;;;3.67;1.98;;;10.20;99.90;;;;;;5064738;28;20021;-74
2021/10/07 01:28:42;;;;;;;5.75;2.83;;;10.10;99.90;;;;;;5046452;28;20136;-75
2021/10/07 01:31:09;;;;;;;4.10;2.08;;;10.10;99.90;;;;;;5046767;28;20064;-74
2021/10/07 01:33:35;;;;;;;4.55;2.05;;;10.10;99.90;;;;;;5065287;28;20041;-75
2021/10/07 01:36:02;;;;;;;21.23;2.80;;;10.10;99.90;;;;;;5064007;28;20021;-75
2021/10/07 01:38:27;;;;;;;6.28;2.50;;;10.10;99.90;;;;;;5064639;28;20055;-74
2021/10/07 01:40:54;;;;;;;5.45;2.45;;;10.00;99.90;;;;;;5063261;28;20047;-74
2021/10/07 01:43:20;;;;;;;4.63;2.53;;;10.00;99.90;;;;;;5046119;28;20067;-74
2021/10/07 01:45:46;;;;;;;6.65;2.85;;;10.10;99.90;;;;;;5064334;28;20049;-74
2021/10/07 01:48:12;;;;;;;9.48;3.05;;;10.00;99.90;;;;;;5063737;28;20079;-74
2021/10/07 01:50:37;;;;;;;5.00;2.78;;;10.00;99.90;;;;;;5063687;28;20025;-74
2021/10/07 01:53:03;;;;;;;3.97;2.50;;;10.00;99.90;;;;;;5064319;28;20033;-75
2021/10/07 01:55:29;;;;;;;5.70;2.58;;;10.10;99.90;;;;;;5063672;28;20081;-74
2021/10/07 01:57:54;;;;;;;6.32;3.40;;;10.10;99.90;;;;;;5063643;28;20040;-75
2021/10/07 02:00:20;;;;;;;6.40;3.08;;;10.10;99.90;;;;;;5064041;28;20025;-75
2021/10/07 02:02:46;;;;;;;6.63;2.97;;;10.20;99.90;;;;;;5062607;28;20029;-75
2021/10/07 02:05:12;;;;;;;4.30;2.72;;;10.30;99.90;;;;;;5064476;28;20025;-75
2021/10/07 02:07:38;;;;;;;6.35;3.45;;;10.30;99.90;;;;;;5045915;28;20033;-75
2021/10/07 02:10:12;;;;;;;4.82;2.72;;;10.40;99.90;;;;;;5062632;28;20028;-75
2021/10/07 02:12:39;;;;;;;3.78;2.28;;;10.40;99.90;;;;;;5064041;28;20634;-75
2021/10/07 02:15:06;;;;;;;7.90;2.83;;;10.40;99.90;;;;;;5063758;28;20041;-74
2021/10/07 02:17:31;;;;;;;5.18;2.72;;;10.50;99.90;;;;;;5063750;28;20029;-75
2021/10/07 02:19:57;;;;;;;6.95;3.60;;;10.50;99.90;;;;;;5063927;28;20056;-74
2021/10/07 02:22:23;;;;;;;6.55;3.17;;;10.60;99.90;;;;;;5046065;28;20471;-74
2021/10/07 02:24:48;;;;;;;6.70;2.97;;;10.60;99.90;;;;;;5063380;28;20037;-75
2021/10/07 02:27:14;;;;;;;5.30;3.50;;;10.60;99.90;;;;;;5064190;28;20025;-75
2021/10/07 02:29:40;;;;;;;6.28;3.13;;;10.70;99.90;;;;;;5064210;28;20052;-75
2021/10/07 02:32:06;;;;;;;6.43;2.90;;;10.70;99.90;;;;;;5063482;28;20029;-74
2021/10/07 02:34:31;;;;;;;5.68;2.80;;;10.70;99.90;;;;;;5063707;28;20037;-74
2021/10/07 02:36:57;;;;;;;4.97;2.53;;;10.70;99.90;;;;;;5063978;28;20029;-74
2021/10/07 02:39:23;;;;;;;5.35;2.90;;;10.80;99.90;;;;;;5062977;28;20029;-74
2021/10/07 02:41:49;;;;;;;7.22;3.70;;;10.80;99.90;;;;;;5062515;28;20049;-74
2021/10/07 02:44:15;;;;;;;4.57;2.30;;;10.80;99.90;;;;;;5063435;28;20029;-76
2021/10/07 02:46:41;;;;;;;7.20;2.97;;;10.80;99.90;;;;;;5063327;28;20084;-75
2021/10/07 02:49:06;;;;;;;6.93;3.10;;;10.80;99.90;;;;;;5063504;28;20029;-73
2021/10/07 02:51:32;;;;;;;6.60;2.90;;;10.80;99.90;;;;;;5062321;28;20048;-73
2021/10/07 02:53:58;;;;;;;4.30;2.58;;;10.80;99.90;;;;;;5063220;28;20412;-73
2021/10/07 02:56:23;;;;;;;8.68;2.25;;;10.80;99.90;;;;;;5063802;28;20021;-73
2021/10/07 02:58:49;;;;;;;4.47;2.40;;;10.80;99.90;;;;;;5062095;28;20051;-75
2021/10/07 03:01:15;;;;;;;11.27;3.08;;;10.80;99.90;;;;;;5065584;28;20043;-73
2021/10/07 03:03:40;;;;;;;7.90;3.28;;;10.80;99.90;;;;;;5067552;28;20029;-73
2021/10/07 03:06:06;;;;;;;5.50;2.92;;;10.80;99.90;;;;;;5067288;28;20033;-74
2021/10/07 03:08:32;;;;;;;5.32;2.50;;;10.70;99.90;;;;;;5067141;28;20043;-74
2021/10/07 03:10:58;;;;;;;9.45;2.67;;;10.80;99.90;;;;;;5065797;28;20021;-74
2021/10/07 03:13:24;;;;;;;5.82;2.85;;;10.80;99.90;;;;;;5066150;28;20033;-74
2021/10/07 03:15:50;;;;;;;8.45;2.97;;;10.90;99.90;;;;;;5066797;28;20021;-74
2021/10/07 03:18:16;;;;;;;7.32;2.30;;;10.80;99.90;;;;;;5048985;28;20025;-74
2021/10/07 03:20:41;;;;;;;4.05;2.85;;;10.70;99.90;;;;;;5066671;28;20372;-74
2021/10/07 03:23:07;;;;;;;6.97;3.17;;;10.80;99.90;;;;;;5067290;28;20566;-74
2021/10/07 03:25:33;;;;;;;5.43;2.92;;;10.80;99.90;;;;;;5065563;28;20087;-74
2021/10/07 03:27:58;;;;;;;5.35;2.55;;;10.80;99.90;;;;;;5066706;28;20067;-74
2021/10/07 03:30:24;;;;;;;4.40;2.55;;;10.70;99.90;;;;;;5066742;28;20044;-75
2021/10/07 03:32:49;;;;;;;7.13;3.28;;;10.70;99.90;;;;;;5066778;28;20025;-75
2021/10/07 03:35:15;;;;;;;6.20;2.75;;;10.70;99.90;;;;;;5065190;28;20036;-76
2021/10/07 03:37:41;;;;;;;5.80;2.45;;;10.60;99.90;;;;;;5067281;28;20035;-75
2021/10/07 03:40:09;;;;;;;7.32;3.45;;;10.60;99.90;;;;;;5066703;28;20029;-74
2021/10/07 03:42:35;;;;;;;5.88;2.30;;;10.50;99.90;;;;;;5067073;28;20564;-74
2021/10/07 03:45:03;;;;;;;5.95;3.05;;;10.50;99.90;;;;;;5066458;28;20047;-74
2021/10/07 03:47:29;;;;;;;7.82;2.50;;;10.50;99.90;;;;;;5065041;28;20052;-74
2021/10/07 03:49:59;;;;;;;3.55;2.22;;;10.40;99.90;;;;;;5064893;28;20033;-75
2021/10/07 03:52:25;;;;;;;4.75;2.58;;;10.40;99.90;;;;;;5066136;28;20029;-74
2021/10/07 03:54:53;;;;;;;5.30;2.25;;;10.40;99.90;;;;;;5047954;28;20037;-74
2021/10/07 03:57:18;;;;;;;5.95;3.15;;;10.30;99.90;;;;;;5065745;28;20025;-75
2021/10/07 03:59:44;;;;;;;6.18;2.40;;;10.20;99.90;;;;;;5066239;28;20028;-76
2021/10/07 04:02:09;;;;;;;4.15;2.38;;;10.10;99.90;;;;;;5047955;28;20039;-75
2021/10/07 04:04:35;;;;;;;7.97;2.80;;;10.20;99.90;;;;;;5066166;28;20037;-75
2021/10/07 04:07:01;;;;;;;4.40;2.55;;;10.00;99.90;;;;;;5065939;28;20029;-74
2021/10/07 04:09:26;;;;;;;5.13;2.53;;;9.90;99.90;;;;;;5065645;28;20025;-74
2021/10/07 04:11:52;;;;;;;8.55;3.13;;;9.90;99.90;;;;;;5047392;28;20084;-74
2021/10/07 04:14:18;;;;;;;4.13;2.67;;;9.90;99.90;;;;;;5064770;28;20381;-74
2021/10/07 04:16:43;;;;;;;10.50;3.40;;;9.90;99.90;;;;;;5065580;28;20025;-74
2021/10/07 04:19:09;;;;;;;5.10;2.65;;;9.90;99.90;;;;;;5065995;28;20029;-74
2021/10/07 04:21:34;;;;;;;8.52;3.08;;;9.90;99.90;;;;;;5064211;28;20036;-74
2021/10/07 04:24:00;;;;;;;5.90;2.47;;;9.90;99.90;;;;;;5065359;28;20020;-74
2021/10/07 04:26:27;;;;;;;5.70;3.17;;;9.90;99.90;;;;;;5064457;28;20029;-74
2021/10/07 04:28:52;;;;;;;4.90;2.83;;;9.90;99.90;;;;;;5065195;28;20528;-75
2021/10/07 04:31:18;;;;;;;7.20;3.00;;;9.90;99.90;;;;;;5065486;28;20031;-76
2021/10/07 04:33:44;;;;;;;7.35;3.03;;;10.00;99.90;;;;;;5065431;28;20040;-76
2021/10/07 04:36:09;;;;;;;5.55;2.75;;;10.00;99.90;;;;;;5065192;28;20037;-74
2021/10/07 04:38:35;;;;;;;5.47;3.00;;;10.00;99.90;;;;;;5065561;28;20036;-75
2021/10/07 04:41:01;;;;;;;4.78;2.75;;;10.10;99.90;;;;;;5047524;28;20144;-74
2021/10/07 04:43:27;;;;;;;4.00;2.40;;;10.10;99.90;;;;;;5064752;28;20039;-74
2021/10/07 04:45:52;;;;;;;6.00;3.17;;;10.10;99.90;;;;;;5065431;28;20056;-74
2021/10/07 04:48:18;;;;;;;5.10;2.78;;;10.10;99.90;;;;;;5065205;28;20108;-77
2021/10/07 04:50:44;;;;;;;6.80;3.20;;;10.10;99.90;;;;;;5063914;28;20029;-74
2021/10/07 04:53:09;;;;;;;5.65;2.95;;;10.10;99.90;;;;;;5064038;28;20028;-74
2021/10/07 04:55:35;;;;;;;5.18;3.13;;;10.20;99.90;;;;;;5064038;28;20033;-74
2021/10/07 04:58:01;;;;;;;8.65;2.67;;;10.10;99.90;;;;;;5063412;28;20459;-73
2021/10/07 05:00:26;;;;;;;7.28;2.67;;;10.10;99.90;;;;;;5047170;28;20070;-74
2021/10/07 05:02:52;;;;;;;5.32;2.65;;;10.10;99.90;;;;;;5064621;28;20033;-74
2021/10/07 05:05:18;;;;;;;6.90;3.25;;;10.20;99.90;;;;;;5065020;28;20051;-74
2021/10/07 05:07:44;;;;;;;5.88;3.05;;;10.20;99.90;;;;;;5065275;28;20056;-74
2021/10/07 05:10:11;;;;;;;7.03;3.40;;;10.20;99.90;;;;;;5064830;28;20508;-74
2021/10/07 05:12:40;;;;;;;6.07;3.10;;;10.20;99.90;;;;;;5064804;28;20060;-75
2021/10/07 05:15:06;;;;;;;6.45;3.17;;;10.20;99.90;;;;;;5064787;28;20037;-74
2021/10/07 05:17:32;;;;;;;4.63;2.97;;;10.20;99.90;;;;;;5046523;28;20529;-74
2021/10/07 05:19:57;;;;;;;6.97;3.72;;;10.20;99.90;;;;;;5050180;28;20033;-74
2021/10/07 05:22:23;;;;;;;8.68;3.67;;;10.20;99.90;;;;;;5063632;28;20029;-74
2021/10/07 05:24:50;;;;;;;6.05;2.65;;;10.20;99.90;;;;;;5044453;28;20481;-73
2021/10/07 05:27:16;;;;;;;5.63;2.97;;;10.20;99.90;;;;;;5026863;28;20026;-75
2021/10/07 05:29:42;;;;;;;8.18;3.72;;;10.20;99.90;;;;;;5026921;28;20026;-75
2021/10/07 05:32:07;;;;;;;5.60;2.80;;;10.20;99.90;;;;;;5044161;28;20485;-75
2021/10/07 05:34:33;;;;;;;5.55;3.25;;;10.20;99.90;;;;;;5047171;28;20061;-73
2021/10/07 05:36:59;;;;;;;4.55;2.45;;;10.20;99.90;;;;;;5045196;28;20029;-74
2021/10/07 05:39:24;;;;;;;5.18;3.20;;;10.20;99.90;;;;;;5058911;28;20041;-74
2021/10/07 05:41:50;;;;;;;8.25;3.75;;;10.30;99.90;;;;;;5059754;28;20060;-73
2021/10/07 05:44:16;;;;;;;10.23;3.72;;;10.30;99.90;;;;;;5063351;28;20025;-74
2021/10/07 05:46:41;;;;;;;7.25;3.30;;;10.30;99.90;;;;;;5042316;28;20049;-75
2021/10/07 05:49:07;;;;;;;7.18;3.58;;;10.30;99.90;;;;;;5032419;28;20458;-74
2021/10/07 05:51:33;;;;;;;6.75;3.40;;;10.30;99.90;;;;;;5034454;28;20560;-75
2021/10/07 05:53:59;;;;;;;9.90;4.25;;;10.20;99.90;;;;;;5011000;28;20038;-74
2021/10/07 05:56:28;;;;;;;7.00;3.95;;;10.20;99.90;;;;;;5037847;28;20101;-75
2021/10/07 05:58:54;;;;;;;7.13;2.80;;;10.20;99.90;;;;;;5043563;28;20032;-74
2021/10/07 06:01:19;;;;;;;6.03;3.55;;;10.20;99.90;;;;;;5035290;28;20030;-75
2021/10/07 06:03:45;;;;;;;6.22;3.10;;;10.20;99.90;;;;;;5030173;28;20038;-74
2021/10/07 06:06:11;;;;;;;10.25;3.55;;;10.20;99.90;;;;;;5018525;28;20035;-74
2021/10/07 06:08:37;;;;;;;6.55;3.08;;;10.20;99.90;;;;;;5024415;28;20093;-74
2021/10/07 06:11:03;;;;;;;8.88;4.05;;;10.20;99.90;;;;;;5032533;28;20029;-73
2021/10/07 06:13:28;;;;;;;9.07;4.07;;;10.20;99.90;;;;;;5029853;28;20034;-73
2021/10/07 06:15:54;;;;;;;8.93;3.65;;;10.30;99.90;;;;;;5034865;28;20043;-73
2021/10/07 06:18:20;;;;;;;7.18;3.60;;;10.20;99.90;;;;;;5041976;28;20163;-74
2021/10/07 06:20:47;;;;;;;9.15;3.30;;;10.20;99.90;;;;;;5023111;28;20036;-73
2021/10/07 06:23:13;;;;;;;5.25;2.95;;;10.20;99.90;;;;;;5035387;28;20032;-73
2021/10/07 06:25:39;;;;;;;6.47;3.47;;;10.20;99.90;;;;;;5037564;28;20061;-74
2021/10/07 06:28:06;;;;;;;7.47;4.03;;;10.10;99.90;;;;;;5028510;28;20025;-73
2021/10/07 06:30:32;;;;;;;9.13;3.53;;;10.30;99.90;;;;;;5035121;28;20018;-73
2021/10/07 06:32:58;;;;;;;12.30;3.03;;;10.30;99.90;;;;;;5023841;28;20085;-74
2021/10/07 06:35:25;;;;;;;18.00;3.33;;;10.20;99.90;;;;;;5026061;28;20401;-74
2021/10/07 06:37:52;;;;;;;9.45;3.47;;;10.20;99.90;;;;;;5029200;28;20057;-76
2021/10/07 06:40:18;;;;;;;6.47;3.53;;;10.20;99.90;;;;;;5028667;28;20030;-73
2021/10/07 06:42:44;;;;;;;7.40;3.65;;;10.20;99.90;;;;;;5028261;28;20038;-74
2021/10/07 06:45:11;;;;;;;7.10;3.53;;;10.20;99.90;;;;;;5027428;28;20089;-73
2021/10/07 06:47:38;;;;;;;6.45;3.15;;;10.30;99.90;;;;;;5035791;28;20029;-74
2021/10/07 06:50:06;;;;;;;5.38;3.00;;;10.40;99.90;;;;;;5041792;28;20096;-74
2021/10/07 06:52:32;;;;;;;3.67;2.40;;;10.40;99.90;;;;;;5037462;28;20036;-74
2021/10/07 06:54:58;;;;;;;7.18;3.13;;;10.40;99.90;;;;;;5038113;28;20041;-73
2021/10/07 06:57:24;;;;;;;6.05;3.13;;;10.50;99.90;;;;;;5023511;28;20026;-74
2021/10/07 06:59:50;;;;;;;9.00;3.90;;;10.50;99.90;;;;;;5028982;28;20037;-73
2021/10/07 07:02:15;;;;;;;5.82;3.15;;;10.50;99.90;;;;;;5026963;28;20112;-74
2021/10/07 07:04:41;;;;;;;5.00;2.67;;;10.50;99.90;;;;;;5047804;28;20029;-73
2021/10/07 07:07:06;;;;;;;6.03;2.80;;;10.60;99.90;;;;;;5028467;28;20068;-73
2021/10/07 07:09:32;;;;;;;5.25;2.47;;;10.60;99.90;;;;;;5027400;28;20030;-73
2021/10/07 07:11:57;;;;;;;4.03;2.03;;;10.60;99.90;;;;;;5025700;28;20022;-73
2021/10/07 07:14:23;;;;;;;3.28;2.30;;;10.70;99.90;;;;;;5026604;28;20038;-74
2021/10/07 07:16:48;;;;;;;3.28;2.03;;;10.80;99.90;;;;;;5037365;28;20036;-75
2021/10/07 07:19:14;;;;;;;5.30;2.42;;;10.80;99.90;;;;;;5035182;28;20056;-74
2021/10/07 07:21:40;;;;;;;8.32;2.92;;;10.90;99.90;;;;;;5045225;28;20033;-74
2021/10/07 07:24:05;;;;;;;4.57;2.20;;;10.90;99.90;;;;;;5028718;28;20056;-75
2021/10/07 07:26:35;;;;;;;2.80;1.48;;;11.00;99.90;;;;;;5040631;28;20178;-73
2021/10/07 07:29:01;;;;;;;4.63;2.50;;;11.00;99.90;;;;;;5026278;28;20060;-73
2021/10/07 07:31:27;;;;;;;6.07;2.20;;;11.10;99.90;;;;;;5043322;28;20030;-74
2021/10/07 07:33:53;;;;;;;4.38;1.60;;;11.30;99.90;;;;;;5046364;28;20042;-74
2021/10/07 07:36:24;;;;;;;2.92;1.83;;;11.50;99.90;;;;;;5021171;28;20060;-75
2021/10/07 07:38:51;;;;;;;2.78;1.67;;;11.70;99.90;;;;;;5037448;28;20085;-74
2021/10/07 07:41:18;;;;;;;5.53;1.67;;;11.90;99.90;;;;;;5045439;28;20025;-73
2021/10/07 07:43:44;;;;;;;3.05;1.83;;;12.00;99.90;;;;;;5045735;28;20036;-74
2021/10/07 07:46:11;;;;;;;3.13;1.70;;;12.30;99.90;;;;;;5046826;28;20054;-74
2021/10/07 07:48:37;;;;;;;6.93;1.85;;;12.50;99.90;;;;;;5045376;28;20382;-74
2021/10/07 07:51:03;;;;;;;5.15;2.25;;;12.70;99.90;;;;;;5046713;28;20040;-73
2021/10/07 07:53:29;;;;;;;5.20;2.03;;;12.90;99.90;;;;;;5044718;28;20057;-74
2021/10/07 07:55:55;;;;;;;1.88;1.40;;;13.00;99.90;;;;;;5012265;28;20414;-74
2021/10/07 07:58:22;;;;;;;2.92;1.73;;;13.10;99.90;;;;;;5031319;28;20034;-73
2021/10/07 08:00:48;;;;;;;3.15;1.83;;;13.20;99.90;;;;;;5030897;28;20044;-75
2021/10/07 08:03:15;;;;;;;4.03;2.13;;;13.30;99.90;;;;;;5021910;28;20026;-74
2021/10/07 08:05:42;;;;;;;5.00;2.20;;;13.30;99.90;;;;;;5044399;28;20167;-74
2021/10/07 08:08:08;;;;;;;3.00;1.80;;;13.40;99.90;;;;;;5037859;28;20030;-75
2021/10/07 08:10:34;;;;;;;3.80;1.90;;;13.40;99.90;;;;;;5043769;28;20087;-74
2021/10/07 08:13:11;;;;;;;2.67;2.10;;;13.40;99.90;;;;;;5009043;28;20061;-74
2021/10/07 08:15:37;;;;;;;4.65;2.13;;;13.50;99.90;;;;;;5039563;28;20464;-73
2021/10/07 08:20:58;;;;;;;3.35;2.13;;;13.50;99.90;;;;;;4840754;28;20051;-74
2021/10/07 08:23:28;;;;;;;3.15;2.00;;;13.50;99.90;;;;;;4973873;28;20509;-75
2021/10/07 08:25:55;;;;;;;5.95;2.35;;;13.50;99.90;;;;;;4977861;28;20035;-75
2021/10/07 08:28:26;;;;;;;7.85;2.35;;;13.40;99.90;;;;;;4978423;28;20429;-75
2021/10/07 08:30:54;;;;;;;7.25;2.42;;;13.50;99.90;;;;;;4974582;28;20035;-74
2021/10/07 08:33:21;;;;;;;5.45;2.55;;;13.50;99.90;;;;;;4981185;28;20109;-74
2021/10/07 08:35:50;;;;;;;7.80;3.13;;;13.60;99.90;;;;;;4965957;28;20035;-75
2021/10/07 08:38:17;;;;;;;8.75;3.17;;;13.60;99.90;;;;;;4974571;28;20039;-74
2021/10/07 08:40:43;;;;;;;5.38;3.08;;;13.70;99.90;;;;;;4967060;29;20110;-74
2021/10/07 08:43:09;;;;;;;4.20;2.38;;;13.80;99.90;;;;;;4967221;29;20486;-74
2021/10/07 08:45:34;;;;;;;4.55;2.65;;;13.80;99.90;;;;;;4975330;28;20042;-73
2021/10/07 08:48:00;;;;;;;5.43;3.10;;;13.90;99.90;;;;;;4986386;28;20049;-74
2021/10/07 08:50:26;;;;;;;9.95;3.40;;;13.90;99.90;;;;;;4981095;28;20390;-75
2021/10/07 08:52:52;;;;;;;7.38;3.45;;;14.00;99.90;;;;;;4982158;28;20402;-76
2021/10/07 08:55:18;;;;;;;6.80;3.42;;;14.00;99.90;;;;;;4985866;28;20043;-75
2021/10/07 08:57:44;;;;;;;8.40;3.67;;;14.10;99.90;;;;;;4967171;28;20023;-75
2021/10/07 09:00:12;;;;;;;5.38;2.80;;;14.30;99.90;;;;;;4968624;28;20031;-75
2021/10/07 09:02:38;;;;;;;8.75;2.58;;;14.30;99.90;;;;;;4986131;28;20037;-73
2021/10/07 09:05:17;;;;;;;6.18;2.75;;;14.40;99.90;;;;;;4996251;28;20088;-73
2021/10/07 09:08:02;;;;;;;6.97;2.90;;;14.50;99.90;;;;;;4985760;28;20038;-74
2021/10/07 09:10:35;;;;;;;6.82;3.03;;;14.60;99.90;;;;;;4989999;28;20062;-75
2021/10/07 09:13:14;;;;;;;7.22;3.42;;;14.50;99.90;;;;;;4998754;28;20034;-73
2021/10/07 09:15:42;;;;;;;6.65;2.53;;;14.50;99.90;;;;;;4990749;28;20039;-73
2021/10/07 09:18:08;;;;;;;8.45;3.55;;;14.40;99.90;;;;;;4988135;28;20431;-73
2021/10/07 09:20:40;;;;;;;5.80;3.03;;;14.30;99.90;;;;;;5005989;28;20082;-73
2021/10/07 09:23:08;;;;;;;7.40;3.33;;;14.40;99.90;;;;;;5021504;28;20065;-74
2021/10/07 09:26:12;;;;;;;5.85;3.30;;;14.40;99.90;;;;;;5006686;28;20026;-73
2021/10/07 09:28:49;;;;;;;6.18;2.58;;;14.60;99.90;;;;;;4963716;28;20095;-73
2021/10/07 09:31:16;;;;;;;6.38;3.22;;;14.70;99.90;;;;;;4957324;29;20051;-73
2021/10/07 09:33:44;;;;;;;7.05;3.13;;;14.80;99.90;;;;;;4946581;28;20510;-74
2021/10/07 09:36:19;;;;;;;6.82;3.15;;;14.90;99.90;;;;;;4985329;28;20031;-74
2021/10/07 09:38:48;;;;;;;5.22;3.00;;;15.00;99.90;;;;;;4984974;28;20107;-73
2021/10/07 09:41:29;;;;;;;6.03;2.75;;;15.00;99.90;;;;;;4989282;28;20049;-73
2021/10/07 09:43:57;;;;;;;6.45;3.17;;;15.10;99.90;;;;;;5009971;28;20056;-74
2021/10/07 09:46:46;;;;;;;10.63;3.58;;;15.20;99.90;;;;;;5004413;28;20030;-74
2021/10/07 09:49:31;;;;;;;10.45;3.88;;;15.30;99.90;;;;;;4985112;28;20034;-74
2021/10/07 09:51:57;;;;;;;8.32;3.40;;;15.50;99.90;;;;;;5009116;28;20030;-74
2021/10/07 09:54:30;;;;;;;7.80;3.40;;;15.60;99.90;;;;;;4992103;28;20132;-74
2021/10/07 09:56:58;;;;;;;5.47;2.90;;;15.60;99.90;;;;;;4987200;28;20054;-75
2021/10/07 09:59:25;;;;;;;7.28;3.30;;;15.70;99.90;;;;;;5004485;28;20327;-75
2021/10/07 10:01:55;;;;;;;5.97;3.22;;;15.70;99.90;;;;;;5004770;28;20053;-75
2021/10/07 10:04:23;;;;;;;5.35;3.15;;;15.70;99.90;;;;;;5012022;28;20026;-74
2021/10/07 10:06:49;;;;;;;7.05;2.60;;;15.70;99.90;;;;;;5024580;28;20053;-72
2021/10/07 10:09:15;;;;;;;4.78;2.65;;;15.80;99.90;;;;;;5023832;28;20091;-75
2021/10/07 10:11:45;;;;;;;7.47;2.97;;;15.80;99.90;;;;;;5005786;28;20061;-74
2021/10/07 10:14:47;;;;;;;9.75;3.50;;;15.80;99.90;;;;;;5101245;27;20406;-72
2021/10/07 10:17:13;;;;;;;7.25;3.05;;;15.90;99.90;;;;;;5116432;28;20114;-74
2021/10/07 10:19:38;;;;;;;6.07;2.97;;;15.90;99.90;;;;;;5099697;28;20503;-73
2021/10/07 10:22:05;;;;;;;4.30;3.17;;;16.00;99.90;;;;;;5098871;28;20028;-72
2021/10/07 10:24:31;;;;;;;3.95;2.47;;;16.10;99.90;;;;;;5099832;28;20012;-72
2021/10/07 10:27:03;;;;;;;6.43;2.67;;;16.10;99.90;;;;;;5101126;28;20043;-72
2021/10/07 10:29:33;;;;;;;5.28;2.33;;;16.30;99.90;;;;;;5100222;28;20026;-71
2021/10/07 10:32:00;;;;;;;6.75;3.08;;;16.40;99.90;;;;;;5101522;28;20032;-72
2021/10/07 10:34:26;;;;;;;3.28;2.40;;;16.50;99.90;;;;;;5101443;28;20037;-73
2021/10/07 10:36:59;;;;;;;8.13;3.05;;;16.60;99.90;;;;;;5101086;28;20036;-74
2021/10/07 10:39:29;;;;;;;7.18;3.20;;;16.70;99.90;;;;;;5100406;28;20021;-71
2021/10/07 10:42:03;;;;;;;4.70;2.97;;;16.80;99.90;;;;;;5101446;28;20084;-75
2021/10/07 10:44:34;;;;;;;5.20;2.45;;;16.90;99.90;;;;;;5101062;28;20020;-72
2021/10/07 10:47:07;;;;;;;7.45;2.90;;;16.80;99.90;;;;;;5101125;28;20024;-73
2021/10/07 10:49:42;;;;;;;6.40;2.92;;;16.90;99.90;;;;;;5099136;28;20024;-72
2021/10/07 10:52:13;;;;;;;7.07;3.10;;;17.10;99.90;;;;;;5097378;28;20458;-73
2021/10/07 10:54:43;;;;;;;5.75;2.55;;;17.30;99.90;;;;;;5087301;28;20036;-73
2021/10/07 10:57:24;;;;;;;4.97;2.50;;;17.40;99.90;;;;;;5093603;28;20028;-75
2021/10/07 11:00:12;;;;;;;5.72;2.72;;;17.70;99.90;;;;;;5099959;28;20083;-72
2021/10/07 11:02:40;;;;;;;6.47;3.33;;;17.90;99.90;;;;;;5100927;28;20025;-73
2021/10/07 11:05:16;;;;;;;9.13;2.88;;;18.00;99.90;;;;;;5100597;28;20488;-73
2021/10/07 11:07:42;;;;;;;20.58;2.03;;;18.00;99.90;;;;;;5101039;28;20651;-74
2021/10/07 11:10:12;;;;;;;4.63;2.33;;;18.20;99.90;;;;;;5097887;28;20033;-75
2021/10/07 11:12:48;;;;;;;4.78;2.53;;;18.30;99.90;;;;;;5095286;28;20052;-73
2021/10/07 11:15:15;;;;;;;3.95;2.08;;;18.10;99.90;;;;;;5099526;28;20028;-73
2021/10/07 11:17:46;;;;;;;3.47;2.17;;;17.80;99.90;;;;;;5078377;28;20057;-73
2021/10/07 11:20:25;;;;;;;3.58;1.83;;;17.40;99.90;;;;;;5078195;28;20031;-74
2021/10/07 11:23:08;;;;;;;3.58;2.05;;;17.10;99.90;;;;;;5080527;28;20028;-73
2021/10/07 11:25:37;;;;;;;4.22;2.03;;;17.00;99.90;;;;;;5069505;28;20040;-72
2021/10/07 11:28:04;;;;;;;4.13;1.83;;;17.20;99.90;;;;;;5085192;28;20095;-75
2021/10/07 11:30:34;;;;;;;3.75;2.30;;;17.30;99.90;;;;;;5083245;28;20027;-72
2021/10/07 11:33:00;;;;;;;4.95;2.55;;;17.30;99.90;;;;;;5065018;28;20037;-72
2021/10/07 11:35:27;;;;;;;3.35;2.17;;;17.00;99.90;;;;;;5065232;28;20032;-73
2021/10/07 11:38:10;;;;;;;3.75;2.22;;;17.00;99.90;;;;;;5065054;28;20021;-73
2021/10/07 11:40:43;;;;;;;4.40;1.88;;;17.00;99.90;;;;;;5066316;28;20033;-73
2021/10/07 11:43:15;;;;;;;4.95;2.35;;;16.90;99.90;;;;;;5066374;28;20495;-73
2021/10/07 11:45:44;;;;;;;5.28;2.40;;;16.90;99.90;;;;;;5077898;28;20028;-74
2021/10/07 11:48:10;;;;;;;3.38;1.85;;;16.90;99.90;;;;;;5084772;28;20028;-73
2021/10/07 11:50:40;;;;;;;3.22;1.98;;;16.80;99.90;;;;;;5084224;28;20024;-74
2021/10/07 11:53:07;;;;;;;3.53;1.90;;;16.80;99.90;;;;;;5085981;28;20039;-74
2021/10/07 11:55:35;;;;;;;2.25;1.42;;;16.70;99.90;;;;;;5085148;28;20021;-73
2021/10/07 11:58:01;;;;;;;4.10;2.25;;;16.60;99.90;;;;;;5084369;28;20028;-72
2021/10/07 12:00:48;;;;;;;2.65;1.60;;;16.50;99.90;;;;;;5086264;28;20062;-72
2021/10/07 12:03:16;;;;;;;5.82;2.35;;;16.30;99.90;;;;;;5082423;28;20047;-73
2021/10/07 12:05:46;;;;;;;4.03;2.42;;;16.40;99.90;;;;;;5086679;28;20032;-74
2021/10/07 12:08:16;;;;;;;4.50;2.53;;;16.40;99.90;;;;;;5086373;28;20039;-74
2021/10/07 12:10:46;;;;;;;5.70;2.80;;;16.30;99.90;;;;;;5085301;28;20502;-72
2021/10/07 12:13:22;;;;;;;5.45;2.00;;;16.40;99.90;;;;;;5085962;28;20058;-73
2021/10/07 12:15:55;;;;;;;4.60;2.13;;;16.40;99.90;;;;;;5086514;28;20062;-72
2021/10/07 12:18:24;;;;;;;5.38;1.90;;;16.40;99.90;;;;;;5086082;28;20029;-74
2021/10/07 12:20:56;;;;;;;3.20;2.03;;;16.40;99.90;;;;;;5086169;28;20024;-75
2021/10/07 12:23:22;;;;;;;3.25;1.85;;;16.40;99.90;;;;;;5073665;28;20029;-74
2021/10/07 12:25:55;;;;;;;2.97;1.98;;;16.40;99.90;;;;;;5084545;28;20031;-73
2021/10/07 12:28:22;;;;;;;4.40;2.22;;;16.50;99.90;;;;;;5084450;28;20024;-74
2021/10/07 12:31:03;;;;;;;9.15;2.83;;;16.50;99.90;;;;;;5085401;28;20039;-73
2021/10/07 12:33:32;;;;;;;5.68;2.67;;;16.60;99.90;;;;;;5084905;28;20036;-73
2021/10/07 12:35:59;;;;;;;4.78;2.58;;;16.70;99.90;;;;;;5085234;28;20036;-74
2021/10/07 12:38:27;;;;;;;4.68;2.45;;;16.70;99.90;;;;;;5085470;28;20028;-74
2021/10/07 12:40:59;;;;;;;7.10;2.47;;;16.80;99.90;;;;;;5085818;28;20032;-72
2021/10/07 12:43:28;;;;;;;3.75;2.15;;;16.90;99.90;;;;;;5085689;28;20020;-72
2021/10/07 12:46:03;;;;;;;3.00;1.83;;;17.10;99.90;;;;;;5085396;28;20578;-74
2021/10/07 12:48:49;;;;;;;5.47;2.17;;;17.20;99.90;;;;;;5085369;28;20044;-72
2021/10/07 12:51:16;;;;;;;7.97;2.20;;;17.20;99.90;;;;;;5084355;28;20063;-72
2021/10/07 12:53:44;;;;;;;3.88;1.95;;;17.40;99.90;;;;;;5084988;28;20032;-74
2021/10/07 12:56:12;;;;;;;3.85;1.85;;;17.60;99.90;;;;;;5084415;28;20054;-72
2021/10/07 12:58:47;;;;;;;4.90;1.70;;;18.00;99.90;;;;;;5085639;28;20020;-72